createdAt,value
2022-11-10T00:03:02.652Z,55.60
2022-11-10T00:05:47.909Z,50.00
2022-11-10T00:08:33.262Z,47.40
2022-11-10T00:11:18.712Z,51.70
2022-11-10T00:14:22.643Z,51.90
2022-11-10T00:17:10.482Z,50.30
2022-11-10T00:19:56.165Z,70.50
2022-11-10T00:22:41.441Z,65.70
2022-11-10T00:25:27.029Z,69.30
2022-11-10T00:28:12.507Z,69.60
2022-11-10T00:30:58.598Z,63.90
2022-11-10T00:36:29.180Z,66.90
2022-11-10T00:39:14.224Z,47.30
2022-11-10T00:41:59.700Z,60.40
2022-11-10T00:44:46.312Z,55.30
2022-11-10T00:47:31.470Z,53.70
2022-11-10T00:50:18.089Z,53.00
2022-11-10T00:53:03.261Z,50.10
2022-11-10T00:55:49.357Z,44.80
2022-11-10T00:58:35.041Z,46.70
2022-11-10T01:01:23.829Z,44.20
2022-11-10T01:04:09.310Z,46.00
2022-11-10T01:06:54.277Z,49.90
2022-11-10T01:09:39.421Z,35.70
2022-11-10T01:12:29.205Z,40.30
2022-11-10T01:15:14.299Z,45.90
2022-11-10T01:17:59.580Z,45.50
2022-11-10T01:20:49.756Z,43.40
2022-11-10T01:23:35.611Z,41.80
2022-11-10T01:26:20.803Z,43.00
2022-11-10T01:29:06.250Z,42.80
2022-11-10T01:31:51.646Z,42.60
2022-11-10T01:34:36.630Z,40.80
2022-11-10T01:37:22.725Z,38.80
2022-11-10T01:40:09.375Z,45.70
2022-11-10T01:42:57.016Z,45.10
2022-11-10T01:45:59.134Z,40.80
2022-11-10T01:49:11.755Z,39.70
2022-11-10T01:52:12.386Z,39.80
2022-11-10T01:54:57.869Z,42.70
2022-11-10T01:57:44.277Z,44.50
2022-11-10T02:00:29.931Z,50.70
2022-11-10T02:03:29.976Z,40.90
2022-11-10T02:06:17.300Z,40.50
2022-11-10T02:09:03.500Z,42.00
2022-11-10T02:11:52.236Z,42.10
2022-11-10T02:14:38.348Z,38.40
2022-11-10T02:17:30.570Z,37.80
2022-11-10T02:20:20.065Z,38.60
2022-11-10T02:23:34.602Z,36.60
2022-11-10T02:26:26.913Z,38.10
2022-11-10T02:29:15.851Z,39.30
2022-11-10T02:32:01.113Z,36.50
2022-11-10T02:34:46.395Z,37.40
2022-11-10T02:37:31.946Z,37.90
2022-11-10T02:40:17.613Z,35.20
2022-11-10T02:43:12.564Z,37.60
2022-11-10T02:45:58.098Z,37.90
2022-11-10T02:48:43.186Z,38.20
2022-11-10T02:51:28.646Z,33.60
2022-11-10T02:54:14.063Z,40.00
2022-11-10T02:57:05.390Z,35.30
2022-11-10T02:59:50.877Z,34.90
2022-11-10T03:02:36.133Z,32.80
2022-11-10T03:05:21.401Z,35.50
2022-11-10T03:08:07.056Z,37.90
2022-11-10T03:10:56.265Z,33.00
2022-11-10T03:14:00.425Z,31.50
2022-11-10T03:19:31.689Z,34.50
2022-11-10T03:22:16.862Z,24.90
2022-11-10T03:25:06.545Z,31.70
2022-11-10T03:27:51.712Z,33.70
2022-11-10T03:30:38.493Z,30.20
2022-11-10T03:33:26.649Z,28.80
2022-11-10T03:36:15.302Z,30.20
2022-11-10T03:39:00.294Z,30.20
2022-11-10T03:41:45.694Z,28.90
2022-11-10T03:44:30.741Z,33.40
2022-11-10T03:47:16.034Z,26.50
2022-11-10T03:50:01.507Z,30.30
2022-11-10T03:52:50.611Z,28.70
2022-11-10T03:55:35.783Z,29.60
2022-11-10T03:58:21.160Z,29.50
2022-11-10T04:01:06.631Z,30.20
2022-11-10T04:09:41.701Z,31.30
2022-11-10T04:13:02.657Z,31.70
2022-11-10T04:15:47.921Z,29.70
2022-11-10T04:18:33.447Z,33.10
2022-11-10T04:21:18.836Z,35.40
2022-11-10T04:24:04.621Z,35.30
2022-11-10T04:26:53.517Z,39.60
2022-11-10T04:29:39.022Z,34.30
2022-11-10T04:32:24.475Z,35.10
2022-11-10T04:35:09.904Z,37.40
2022-11-10T04:37:55.302Z,32.80
2022-11-10T04:40:40.427Z,32.70
2022-11-10T04:43:30.116Z,31.80
2022-11-10T04:46:23.466Z,33.00
2022-11-10T04:49:10.332Z,32.80
2022-11-10T04:51:55.637Z,31.70
2022-11-10T04:54:41.208Z,27.60
2022-11-10T04:57:26.198Z,30.50
2022-11-10T05:00:14.958Z,29.90
2022-11-10T05:03:03.524Z,25.80
2022-11-10T05:05:49.212Z,23.00
2022-11-10T05:08:38.507Z,25.20
2022-11-10T05:11:23.449Z,24.00
2022-11-10T05:14:08.646Z,23.70
2022-11-10T05:16:53.775Z,22.00
2022-11-10T05:19:38.980Z,24.30
2022-11-10T05:22:24.166Z,22.00
2022-11-10T05:25:09.497Z,16.10
2022-11-10T05:27:54.898Z,20.20
2022-11-10T05:30:40.430Z,40.70
2022-11-10T05:33:26.026Z,36.10
2022-11-10T05:36:14.866Z,34.30
2022-11-10T05:38:59.914Z,28.90
2022-11-10T05:41:45.431Z,23.40
2022-11-10T05:44:30.521Z,22.20
2022-11-10T05:47:15.858Z,23.00
2022-11-10T05:50:01.326Z,22.60
2022-11-10T05:52:54.666Z,23.10
2022-11-10T05:55:40.099Z,35.40
2022-11-10T05:58:25.605Z,29.90
2022-11-10T06:01:10.745Z,35.40
2022-11-10T06:03:56.422Z,24.10
2022-11-10T06:06:41.943Z,21.90
2022-11-10T06:09:27.035Z,19.60
2022-11-10T06:12:12.567Z,19.00
2022-11-10T06:15:01.190Z,22.90
2022-11-10T06:17:47.102Z,20.00
2022-11-10T06:20:36.327Z,20.80
2022-11-10T06:23:21.825Z,21.00
2022-11-10T06:26:10.571Z,21.50
2022-11-10T06:28:55.570Z,30.30
2022-11-10T06:31:41.046Z,19.00
2022-11-10T06:34:30.019Z,19.60
2022-11-10T06:37:15.186Z,20.50
2022-11-10T06:40:00.423Z,21.60
2022-11-10T06:42:45.335Z,23.70
2022-11-10T06:45:30.782Z,29.50
2022-11-10T06:48:16.177Z,22.10
2022-11-10T06:51:04.463Z,18.10
2022-11-10T06:53:49.490Z,24.50
2022-11-10T06:56:34.727Z,18.40
2022-11-10T06:59:20.098Z,21.30
2022-11-10T07:02:13.401Z,21.90
2022-11-10T07:04:58.517Z,19.10
2022-11-10T07:07:43.589Z,17.20
2022-11-10T07:10:29.151Z,20.80
2022-11-10T07:13:14.468Z,18.00
2022-11-10T07:16:04.715Z,17.50
2022-11-10T07:18:49.993Z,18.20
2022-11-10T07:21:35.167Z,14.90
2022-11-10T07:24:24.278Z,17.90
2022-11-10T07:27:09.616Z,17.40
2022-11-10T07:29:54.457Z,20.40
2022-11-10T07:32:40.186Z,16.30
2022-11-10T07:35:29.243Z,16.20
2022-11-10T07:38:16.314Z,16.60
2022-11-10T07:41:01.631Z,17.50
2022-11-10T07:43:47.029Z,18.30
2022-11-10T07:46:32.494Z,21.90
2022-11-10T07:49:18.073Z,20.80
2022-11-10T07:52:03.305Z,16.00
2022-11-10T07:54:48.586Z,14.70
2022-11-10T07:57:34.209Z,14.50
2022-11-10T08:00:19.543Z,14.90
2022-11-10T08:03:13.589Z,13.10
2022-11-10T08:05:59.255Z,15.80
2022-11-10T08:08:47.671Z,14.20
2022-11-10T08:11:32.916Z,15.30
2022-11-10T08:14:18.199Z,14.50
2022-11-10T08:17:03.280Z,15.90
2022-11-10T08:19:48.582Z,13.70
2022-11-10T08:22:33.567Z,12.80
2022-11-10T08:25:19.022Z,12.50
2022-11-10T08:28:18.932Z,13.40
2022-11-10T08:31:06.394Z,14.80
2022-11-10T08:33:52.587Z,13.70
2022-11-10T08:36:37.651Z,16.30
2022-11-10T08:39:38.269Z,13.00
2022-11-10T08:42:27.827Z,14.60
2022-11-10T08:45:14.206Z,11.20
2022-11-10T08:48:06.292Z,12.60
2022-11-10T08:50:51.808Z,11.10
2022-11-10T08:53:37.210Z,12.90
2022-11-10T08:56:22.467Z,12.30
2022-11-10T08:59:07.771Z,11.90
2022-11-10T09:01:53.124Z,9.80
2022-11-10T09:04:38.793Z,9.10
2022-11-10T09:07:24.286Z,11.30
2022-11-10T09:10:09.826Z,11.30
2022-11-10T09:13:01.991Z,11.10
2022-11-10T09:15:50.735Z,9.40
2022-11-10T09:18:36.077Z,7.00
2022-11-10T09:21:24.944Z,9.20
2022-11-10T09:24:10.383Z,7.20
2022-11-10T09:26:55.816Z,7.40
2022-11-10T09:29:40.843Z,10.00
2022-11-10T09:32:26.153Z,10.90
2022-11-10T09:35:15.072Z,9.80
2022-11-10T09:38:00.400Z,8.80
2022-11-10T09:41:04.013Z,7.40
2022-11-10T09:44:04.055Z,7.20
2022-11-10T09:47:02.378Z,10.70
2022-11-10T09:49:57.030Z,9.80
2022-11-10T09:52:45.858Z,10.50
2022-11-10T09:55:46.497Z,10.00
2022-11-10T09:58:42.048Z,9.30
2022-11-10T10:01:51.300Z,6.70
2022-11-10T10:05:05.707Z,12.00
2022-11-10T10:11:24.112Z,10.00
2022-11-10T10:14:57.124Z,7.00
2022-11-10T10:17:56.525Z,14.00
2022-11-10T10:21:33.494Z,6.00
2022-11-10T10:24:23.050Z,5.00
2022-11-10T10:27:25.627Z,9.30
2022-11-10T10:30:21.337Z,10.50
2022-11-10T10:33:24.598Z,7.90
2022-11-10T10:36:32.132Z,7.80
2022-11-10T10:39:39.893Z,9.90
2022-11-10T10:42:36.342Z,11.40
2022-11-10T10:45:32.054Z,6.70
